createdAt,value
2018-06-04T00:00:42.014Z,0
2018-06-04T00:01:42.262Z,0
2018-06-04T00:02:42.272Z,0
2018-06-04T00:03:42.010Z,0
2018-06-04T00:04:41.478Z,0
2018-06-04T00:05:41.746Z,0
2018-06-04T00:06:41.740Z,0
2018-06-04T00:07:42.000Z,0
2018-06-04T00:08:41.765Z,0
2018-06-04T00:09:42.319Z,0
2018-06-04T00:10:42.360Z,0
2018-06-04T00:11:42.299Z,0
2018-06-04T00:12:42.291Z,0
2018-06-04T00:13:42.043Z,0
2018-06-04T00:14:42.025Z,0
2018-06-04T00:15:42.022Z,0
2018-06-04T00:16:42.026Z,0
2018-06-04T00:17:42.367Z,0
2018-06-04T00:18:41.781Z,0
2018-06-04T00:19:41.776Z,0
2018-06-04T00:20:41.502Z,0
2018-06-04T00:21:42.299Z,0
2018-06-04T00:22:41.557Z,0
2018-06-04T00:23:42.297Z,0
2018-06-04T00:24:42.074Z,0
2018-06-04T00:25:42.370Z,0
2018-06-04T00:26:42.066Z,0
2018-06-04T00:27:42.048Z,0
2018-06-04T00:28:41.795Z,0
2018-06-04T00:29:41.811Z,0
2018-06-04T00:30:41.543Z,0
2018-06-04T00:31:42.066Z,0
2018-06-04T00:32:41.802Z,0
2018-06-04T00:33:41.540Z,0
2018-06-04T00:34:41.566Z,0
2018-06-04T00:35:42.068Z,0
2018-06-04T00:36:42.351Z,0
2018-06-04T00:37:41.806Z,0
2018-06-04T00:38:41.811Z,0
2018-06-04T00:39:41.823Z,0
2018-06-04T00:40:42.126Z,0
2018-06-04T00:41:42.358Z,0
2018-06-04T00:42:41.834Z,0
2018-06-04T00:43:42.086Z,0
2018-06-04T00:44:42.341Z,0
2018-06-04T00:45:41.304Z,0
2018-06-04T00:46:42.092Z,0
2018-06-04T00:47:41.838Z,0
2018-06-04T00:48:41.324Z,0
2018-06-04T00:49:41.869Z,0
2018-06-04T00:50:41.894Z,0
2018-06-04T00:51:42.111Z,0
2018-06-04T00:52:42.436Z,0
2018-06-04T00:53:42.103Z,0
2018-06-04T00:54:41.598Z,0
2018-06-04T00:55:42.375Z,0
2018-06-04T00:56:41.582Z,0
2018-06-04T00:57:42.390Z,0
2018-06-04T00:58:42.112Z,0
2018-06-04T00:59:41.841Z,0
2018-06-04T01:00:41.579Z,0
2018-06-04T01:01:41.349Z,0
2018-06-04T01:02:42.109Z,0
2018-06-04T01:03:41.895Z,0
2018-06-04T01:04:41.869Z,0
2018-06-04T01:05:41.900Z,0
2018-06-04T01:06:42.123Z,0
2018-06-04T01:07:42.386Z,0
2018-06-04T01:08:41.635Z,0
2018-06-04T01:09:41.364Z,0
2018-06-04T01:10:41.942Z,0
2018-06-04T01:11:42.174Z,0
2018-06-04T01:12:41.616Z,0
2018-06-04T01:13:42.444Z,0
2018-06-04T01:14:42.135Z,0
2018-06-04T01:15:42.136Z,0
2018-06-04T01:16:41.898Z,0
2018-06-04T01:17:42.149Z,0
2018-06-04T01:18:41.891Z,0
2018-06-04T01:19:41.890Z,0
2018-06-04T01:20:41.895Z,0
2018-06-04T01:21:42.168Z,0
2018-06-04T01:22:42.443Z,0
2018-06-04T01:23:42.159Z,0
2018-06-04T01:24:42.158Z,0
2018-06-04T01:25:42.177Z,0
2018-06-04T01:26:41.714Z,0
2018-06-04T01:27:42.217Z,0
2018-06-04T01:28:41.894Z,0
2018-06-04T01:29:41.903Z,0
2018-06-04T01:30:41.900Z,0
2018-06-04T01:31:41.895Z,0
2018-06-04T01:32:41.645Z,0
2018-06-04T01:33:41.654Z,0
2018-06-04T01:34:42.205Z,0
2018-06-04T01:35:41.919Z,0
2018-06-04T01:36:42.162Z,0
2018-06-04T01:37:41.928Z,0
2018-06-04T01:38:41.925Z,0
2018-06-04T01:39:42.177Z,0
2018-06-04T01:40:42.486Z,0
2018-06-04T01:41:41.940Z,0
2018-06-04T01:42:42.459Z,0
2018-06-04T01:43:41.656Z,0
2018-06-04T01:44:41.679Z,0
2018-06-04T01:45:42.178Z,0
2018-06-04T01:46:41.658Z,0
2018-06-04T01:47:42.186Z,0
2018-06-04T01:48:41.668Z,0
2018-06-04T01:49:41.927Z,0
2018-06-04T01:50:42.193Z,0
2018-06-04T01:51:41.669Z,0
2018-06-04T01:52:41.969Z,0
2018-06-04T01:53:42.192Z,0
2018-06-04T01:54:41.946Z,0
2018-06-04T01:55:42.253Z,0
2018-06-04T01:56:41.979Z,0
2018-06-04T01:57:42.195Z,0
2018-06-04T01:58:41.943Z,0
2018-06-04T01:59:41.691Z,0
2018-06-04T02:00:41.935Z,0
2018-06-04T02:01:42.257Z,0
2018-06-04T02:02:41.941Z,0
2018-06-04T02:03:42.206Z,0
2018-06-04T02:04:42.225Z,0
2018-06-04T02:05:42.477Z,0
2018-06-04T02:06:42.231Z,0
2018-06-04T02:07:41.693Z,0
2018-06-04T02:08:42.209Z,0
2018-06-04T02:09:41.958Z,0
2018-06-04T02:10:42.552Z,0
2018-06-04T02:11:41.713Z,0
2018-06-04T02:12:41.719Z,0
2018-06-04T02:13:41.971Z,0
2018-06-04T02:14:41.730Z,0
2018-06-04T02:15:41.706Z,0
2018-06-04T02:16:42.236Z,0
2018-06-04T02:17:42.247Z,0
2018-06-04T02:18:42.517Z,0
2018-06-04T02:19:42.236Z,0
2018-06-04T02:20:42.233Z,0
2018-06-04T02:21:42.237Z,0
2018-06-04T02:22:41.979Z,0
2018-06-04T02:23:41.985Z,0
2018-06-04T02:24:42.236Z,0
2018-06-04T02:25:43.898Z,0
2018-06-04T02:26:41.725Z,0
2018-06-04T02:27:41.986Z,0
2018-06-04T02:28:42.239Z,0
2018-06-04T02:29:41.727Z,0
2018-06-04T02:30:43.050Z,0
2018-06-04T02:31:42.254Z,0
2018-06-04T02:32:42.248Z,0
2018-06-04T02:33:42.527Z,0
2018-06-04T02:34:41.986Z,0
2018-06-04T02:35:42.000Z,0
2018-06-04T02:36:42.521Z,0
2018-06-04T02:37:42.261Z,0
2018-06-04T02:38:42.270Z,0
2018-06-04T02:39:42.286Z,0
2018-06-04T02:40:42.262Z,0
2018-06-04T02:41:42.070Z,0
2018-06-04T02:42:42.570Z,0
2018-06-04T02:43:41.749Z,0
2018-06-04T02:44:42.021Z,0
2018-06-04T02:45:41.757Z,0
2018-06-04T02:46:42.522Z,0
2018-06-04T02:47:42.529Z,0
2018-06-04T02:48:41.992Z,0
2018-06-04T02:49:42.017Z,0
2018-06-04T02:50:42.272Z,0
2018-06-04T02:51:42.534Z,0
2018-06-04T02:52:42.287Z,0
2018-06-04T02:53:42.546Z,0
2018-06-04T02:54:42.302Z,0
2018-06-04T02:55:42.547Z,0
2018-06-04T02:56:42.609Z,0
2018-06-04T02:57:42.297Z,0
2018-06-04T02:58:42.346Z,0
2018-06-04T02:59:42.555Z,0
2018-06-04T03:00:42.554Z,0
2018-06-04T03:01:42.279Z,0
2018-06-04T03:02:42.298Z,0
2018-06-04T03:03:42.284Z,0
2018-06-04T03:04:42.289Z,0
2018-06-04T03:05:41.777Z,0
2018-06-04T03:06:42.551Z,0
2018-06-04T03:07:42.332Z,0
2018-06-04T03:08:42.551Z,5
2018-06-04T03:09:42.568Z,5
2018-06-04T03:10:42.556Z,5
2018-06-04T03:11:42.376Z,5
2018-06-04T03:12:42.297Z,5
2018-06-04T03:13:41.775Z,5
2018-06-04T03:14:42.578Z,5
2018-06-04T03:15:42.345Z,5
2018-06-04T03:16:41.777Z,5
2018-06-04T03:17:42.034Z,5
2018-06-04T03:18:42.297Z,10
2018-06-04T03:19:42.307Z,10
2018-06-04T03:20:42.043Z,10
2018-06-04T03:21:42.569Z,10
2018-06-04T03:22:41.788Z,10
2018-06-04T03:23:42.065Z,10
2018-06-04T03:24:41.792Z,10
2018-06-04T03:25:42.324Z,15
2018-06-04T03:26:42.569Z,15
2018-06-04T03:27:41.811Z,15
2018-06-04T03:28:42.109Z,15
2018-06-04T03:29:41.790Z,15
2018-06-04T03:30:42.576Z,20
2018-06-04T03:31:42.649Z,20
2018-06-04T03:32:42.070Z,20
2018-06-04T03:33:42.335Z,20
2018-06-04T03:34:41.525Z,25
2018-06-04T03:35:42.075Z,25
2018-06-04T03:36:41.841Z,25
2018-06-04T03:37:42.623Z,25
2018-06-04T03:38:41.814Z,30
2018-06-04T03:39:41.813Z,30
2018-06-04T03:40:42.072Z,30
2018-06-04T03:41:42.648Z,35
2018-06-04T03:42:41.810Z,35
2018-06-04T03:43:41.835Z,35
2018-06-04T03:44:42.354Z,35
2018-06-04T03:45:42.356Z,35
2018-06-04T03:46:42.077Z,35
2018-06-04T03:47:42.089Z,35
2018-06-04T03:48:42.340Z,40
2018-06-04T03:49:42.404Z,40
2018-06-04T03:50:42.599Z,40
2018-06-04T03:51:42.369Z,45
2018-06-04T03:52:42.088Z,50
2018-06-04T03:53:41.821Z,70
2018-06-04T03:54:42.628Z,90
2018-06-04T03:55:42.108Z,100
2018-06-04T03:56:42.421Z,105
2018-06-04T03:57:42.385Z,110
2018-06-04T03:58:42.110Z,115
2018-06-04T03:59:42.090Z,120
2018-06-04T04:00:42.354Z,115
2018-06-04T04:01:42.141Z,115
2018-06-04T04:02:42.151Z,125
2018-06-04T04:03:42.108Z,130
2018-06-04T04:04:42.363Z,135
2018-06-04T04:05:42.361Z,145
2018-06-04T04:06:42.396Z,150
2018-06-04T04:07:42.111Z,160
2018-06-04T04:08:42.413Z,160
2018-06-04T04:09:42.098Z,165
2018-06-04T04:10:41.617Z,165
2018-06-04T04:11:41.931Z,165
2018-06-04T04:12:42.382Z,170
2018-06-04T04:13:41.868Z,165
2018-06-04T04:14:42.177Z,160
2018-06-04T04:15:42.405Z,165
2018-06-04T04:16:42.698Z,170
2018-06-04T04:17:41.618Z,180
2018-06-04T04:18:42.405Z,190
2018-06-04T04:19:42.163Z,195
2018-06-04T04:20:42.672Z,200
2018-06-04T04:21:41.889Z,210
2018-06-04T04:22:42.176Z,220
2018-06-04T04:23:41.635Z,220
2018-06-04T04:24:42.163Z,225
2018-06-04T04:25:42.904Z,230
2018-06-04T04:26:42.567Z,235
2018-06-04T04:27:42.515Z,235
2018-06-04T04:28:42.441Z,235
2018-06-04T04:29:42.181Z,235
2018-06-04T04:30:42.733Z,235
2018-06-04T04:31:42.458Z,240
2018-06-04T04:32:42.483Z,240
2018-06-04T04:33:42.209Z,225
2018-06-04T04:34:42.483Z,205
2018-06-04T04:35:42.730Z,240
2018-06-04T04:36:42.024Z,250
2018-06-04T04:37:42.241Z,255
2018-06-04T04:38:42.509Z,260
2018-06-04T04:39:42.493Z,265
2018-06-04T04:40:42.244Z,270
2018-06-04T04:41:42.299Z,265
2018-06-04T04:42:42.756Z,265
2018-06-04T04:43:42.807Z,270
2018-06-04T04:44:42.768Z,285
2018-06-04T04:45:42.511Z,290
2018-06-04T04:46:42.976Z,295
2018-06-04T04:47:42.533Z,295
2018-06-04T04:48:42.278Z,300
2018-06-04T04:49:42.532Z,310
2018-06-04T04:50:42.284Z,310
2018-06-04T04:51:42.288Z,310
2018-06-04T04:52:42.590Z,325
2018-06-04T04:53:42.564Z,320
2018-06-04T04:54:42.569Z,330
2018-06-04T04:55:42.850Z,320
2018-06-04T04:56:42.590Z,325
2018-06-04T04:57:42.591Z,155
2018-06-04T04:58:42.608Z,175
2018-06-04T04:59:42.887Z,215
2018-06-04T05:00:42.127Z,195
2018-06-04T05:01:42.364Z,180
2018-06-04T05:02:42.340Z,175
2018-06-04T05:03:42.616Z,165
2018-06-04T05:04:42.381Z,155
2018-06-04T05:05:42.634Z,155
2018-06-04T05:06:42.383Z,155
2018-06-04T05:07:42.640Z,150
2018-06-04T05:08:42.490Z,150
2018-06-04T05:09:42.661Z,340
2018-06-04T05:10:42.146Z,345
2018-06-04T05:11:42.941Z,155
2018-06-04T05:12:42.647Z,155
2018-06-04T05:13:42.421Z,155
2018-06-04T05:14:42.943Z,160
2018-06-04T05:15:42.671Z,160
2018-06-04T05:16:42.686Z,160
2018-06-04T05:17:42.681Z,160
2018-06-04T05:18:42.691Z,165
2018-06-04T05:19:42.188Z,370
2018-06-04T05:20:42.697Z,165
2018-06-04T05:21:42.462Z,165
2018-06-04T05:22:42.980Z,170
2018-06-04T05:23:42.976Z,175
2018-06-04T05:24:42.734Z,170
2018-06-04T05:25:42.472Z,170
2018-06-04T05:26:45.992Z,170
2018-06-04T05:27:42.487Z,170
2018-06-04T05:28:42.503Z,170
2018-06-04T05:29:42.487Z,170
2018-06-04T05:30:43.016Z,175
2018-06-04T05:31:42.744Z,175
2018-06-04T05:32:42.739Z,175
2018-06-04T05:33:42.263Z,175
2018-06-04T05:34:42.482Z,180
2018-06-04T05:35:42.763Z,180
2018-06-04T05:36:42.504Z,180
2018-06-04T05:37:42.510Z,180
2018-06-04T05:38:42.506Z,180
2018-06-04T05:39:42.513Z,185
2018-06-04T05:40:42.807Z,185
2018-06-04T05:41:42.567Z,190
2018-06-04T05:42:43.040Z,195
2018-06-04T05:43:42.522Z,200
2018-06-04T05:44:43.048Z,210
2018-06-04T05:45:42.798Z,210
2018-06-04T05:46:42.553Z,210
2018-06-04T05:47:43.062Z,215
2018-06-04T05:48:42.793Z,220
2018-06-04T05:49:42.802Z,235
2018-06-04T05:50:43.089Z,240
2018-06-04T05:51:43.100Z,240
2018-06-04T05:52:42.840Z,255
2018-06-04T05:53:43.087Z,270
2018-06-04T05:54:42.836Z,280
2018-06-04T05:55:42.824Z,305
2018-06-04T05:56:42.647Z,335
2018-06-04T05:57:43.094Z,350
2018-06-04T05:58:42.584Z,355
2018-06-04T05:59:42.835Z,355
2018-06-04T06:00:42.623Z,360
2018-06-04T06:01:42.716Z,360
2018-06-04T06:02:43.164Z,365
2018-06-04T06:03:42.872Z,370
2018-06-04T06:04:42.900Z,375
2018-06-04T06:05:42.873Z,375
2018-06-04T06:06:42.622Z,380
2018-06-04T06:07:42.637Z,380
2018-06-04T06:08:42.361Z,380
2018-06-04T06:09:42.913Z,380
2018-06-04T06:10:43.185Z,380
2018-06-04T06:11:43.214Z,390
2018-06-04T06:12:42.910Z,405
2018-06-04T06:23:21.346Z,410
2018-06-04T06:24:21.338Z,410
2018-06-04T06:25:21.385Z,410
2018-06-04T06:26:21.720Z,410
2018-06-04T06:27:21.880Z,410
2018-06-04T06:28:21.653Z,415
2018-06-04T06:29:21.654Z,410
2018-06-04T06:30:21.923Z,415
2018-06-04T06:31:21.460Z,415
2018-06-04T06:32:21.440Z,415
2018-06-04T06:33:21.398Z,415
2018-06-04T06:34:21.416Z,410
2018-06-04T06:35:21.149Z,415
2018-06-04T06:36:22.001Z,420
2018-06-04T06:37:21.680Z,415
2018-06-04T06:38:21.457Z,420
2018-06-04T06:39:21.196Z,420
2018-06-04T06:40:21.999Z,420
2018-06-04T06:41:21.508Z,420
2018-06-04T06:42:22.012Z,420
2018-06-04T06:43:21.539Z,420
2018-06-04T06:44:21.497Z,425
2018-06-04T06:45:21.552Z,430
2018-06-04T06:46:21.795Z,420
2018-06-04T06:47:21.531Z,415
2018-06-04T06:48:21.803Z,415
2018-06-04T06:49:21.300Z,415
2018-06-04T06:50:21.411Z,415
2018-06-04T06:51:21.929Z,415
2018-06-04T06:52:21.816Z,415
2018-06-04T06:53:21.056Z,415
2018-06-04T06:54:22.144Z,415
2018-06-04T06:55:21.944Z,420
2018-06-04T06:56:21.906Z,420
2018-06-04T06:57:21.880Z,415
2018-06-04T06:58:21.908Z,405
2018-06-04T06:59:21.651Z,405
2018-06-04T07:00:21.644Z,400
2018-06-04T07:01:22.188Z,390
2018-06-04T07:02:21.943Z,385
2018-06-04T07:03:21.687Z,370
2018-06-04T07:04:21.950Z,350
2018-06-04T07:05:21.432Z,350
2018-06-04T07:06:21.709Z,365
2018-06-04T07:07:21.774Z,365
2018-06-04T07:08:21.773Z,360
2018-06-04T07:09:21.989Z,365
2018-06-04T07:10:22.002Z,370
2018-06-04T07:11:22.103Z,365
2018-06-04T07:12:22.028Z,370
2018-06-04T07:13:22.135Z,370
2018-06-04T07:14:22.653Z,380
2018-06-04T07:15:22.089Z,400
2018-06-04T07:16:21.811Z,395
2018-06-04T07:17:22.344Z,395
2018-06-04T07:18:21.816Z,395
2018-06-04T07:19:21.576Z,400
2018-06-04T07:20:21.834Z,400
2018-06-04T07:21:22.183Z,400
2018-06-04T07:22:22.136Z,395
2018-06-04T07:23:21.886Z,395
2018-06-04T07:24:21.890Z,395
2018-06-04T07:25:21.884Z,390
2018-06-04T07:26:22.462Z,390
2018-06-04T07:27:22.422Z,390
2018-06-04T07:28:22.160Z,385
2018-06-04T07:29:21.907Z,385
2018-06-04T07:30:22.200Z,385
2018-06-04T07:31:21.691Z,395
2018-06-04T07:32:21.688Z,400
2018-06-04T07:33:21.425Z,400
2018-06-04T07:34:22.252Z,400
2018-06-04T07:35:21.975Z,400
2018-06-04T07:36:21.765Z,405
2018-06-04T07:37:21.998Z,405
2018-06-04T07:38:21.793Z,400
2018-06-04T07:39:22.264Z,400
2018-06-04T07:40:21.498Z,400
2018-06-04T07:41:22.888Z,400
2018-06-04T07:42:22.031Z,400
2018-06-04T07:43:22.121Z,395
2018-06-04T07:44:21.940Z,395
2018-06-04T07:45:22.323Z,400
2018-06-04T07:46:22.085Z,400
2018-06-04T07:47:22.354Z,395
2018-06-04T07:48:22.412Z,395
2018-06-04T07:49:22.366Z,395
2018-06-04T07:50:22.151Z,395
2018-06-04T07:51:22.461Z,390
2018-06-04T07:52:22.143Z,390
2018-06-04T07:53:22.366Z,395
2018-06-04T07:54:22.669Z,390
2018-06-04T07:55:22.425Z,385
2018-06-04T07:56:22.196Z,385
2018-06-04T07:57:22.683Z,395
2018-06-04T07:58:22.755Z,390
2018-06-04T07:59:22.189Z,390
2018-06-04T08:00:22.749Z,385
2018-06-04T08:01:22.278Z,385
2018-06-04T08:02:22.497Z,380
2018-06-04T08:03:22.236Z,380
2018-06-04T08:04:22.665Z,380
2018-06-04T08:05:22.782Z,380
2018-06-04T08:06:22.386Z,380
2018-06-04T08:07:22.278Z,375
2018-06-04T08:08:22.576Z,375
2018-06-04T08:09:22.561Z,375
2018-06-04T08:10:22.879Z,375
2018-06-04T08:11:22.359Z,375
2018-06-04T08:12:22.060Z,370
2018-06-04T08:13:22.662Z,370
2018-06-04T08:14:22.344Z,370
2018-06-04T08:15:22.600Z,365
2018-06-04T08:16:22.708Z,365
2018-06-04T08:17:22.407Z,365
2018-06-04T08:18:22.110Z,360
2018-06-04T08:19:22.668Z,360
2018-06-04T08:20:22.666Z,360
2018-06-04T08:21:22.742Z,355
2018-06-04T08:22:22.411Z,355
2018-06-04T08:23:22.950Z,355
2018-06-04T08:24:22.690Z,355
2018-06-04T08:25:22.707Z,350
2018-06-04T08:26:22.516Z,350
2018-06-04T08:27:22.492Z,350
2018-06-04T08:28:23.012Z,350
2018-06-04T08:29:23.276Z,350
2018-06-04T08:30:22.485Z,345
2018-06-04T08:31:23.065Z,345
2018-06-04T08:32:23.084Z,345
2018-06-04T08:33:22.775Z,345
2018-06-04T08:34:22.793Z,345
2018-06-04T08:35:22.295Z,345
2018-06-04T08:36:22.798Z,340
2018-06-04T08:37:22.811Z,340
2018-06-04T08:38:22.614Z,340
2018-06-04T08:39:22.329Z,340
2018-06-04T08:40:23.417Z,340
2018-06-04T08:41:22.312Z,340
2018-06-04T08:42:23.121Z,345
2018-06-04T08:43:22.404Z,340
2018-06-04T08:44:22.354Z,340
2018-06-04T08:45:22.607Z,340
2018-06-04T08:46:22.398Z,340
2018-06-04T08:47:22.656Z,335
2018-06-04T08:48:22.925Z,335
2018-06-04T08:49:22.921Z,340
2018-06-04T08:50:23.212Z,335
2018-06-04T08:51:22.969Z,335
2018-06-04T08:52:22.967Z,335
2018-06-04T08:53:22.943Z,335
2018-06-04T08:54:22.700Z,335
2018-06-04T08:55:22.979Z,330
2018-06-04T08:56:23.492Z,330
2018-06-04T08:57:22.760Z,330
2018-06-04T08:58:22.752Z,330
2018-06-04T08:59:23.021Z,330
2018-06-04T09:00:22.231Z,330
2018-06-04T09:01:22.499Z,325
2018-06-04T09:02:22.795Z,320
2018-06-04T09:03:23.308Z,310
2018-06-04T09:04:22.875Z,305
2018-06-04T09:05:23.068Z,300
2018-06-04T09:06:23.321Z,300
2018-06-04T09:07:23.141Z,295
2018-06-04T09:08:22.833Z,295
2018-06-04T09:09:23.223Z,295
2018-06-04T09:10:23.087Z,295
2018-06-04T09:11:22.852Z,290
2018-06-04T09:12:22.849Z,290
2018-06-04T09:13:22.912Z,295
2018-06-04T09:14:22.856Z,295
2018-06-04T09:15:22.622Z,290
2018-06-04T09:16:22.609Z,290
2018-06-04T09:17:23.183Z,295
2018-06-04T09:18:23.154Z,295
2018-06-04T09:19:23.164Z,295
2018-06-04T09:20:23.167Z,295
2018-06-04T09:21:23.204Z,295
2018-06-04T09:22:23.166Z,295
2018-06-04T09:23:22.914Z,295
2018-06-04T09:24:22.914Z,295
2018-06-04T09:25:23.195Z,295
2018-06-04T09:26:22.994Z,295
2018-06-04T09:27:22.944Z,295
2018-06-04T09:28:23.275Z,300
2018-06-04T09:29:23.492Z,300
2018-06-04T09:30:23.491Z,300
2018-06-04T09:31:23.059Z,295
2018-06-04T09:32:23.523Z,300
2018-06-04T09:33:23.254Z,300
2018-06-04T09:34:22.460Z,300
2018-06-04T09:35:22.481Z,300
2018-06-04T09:36:23.569Z,305
2018-06-04T09:37:23.034Z,305
2018-06-04T09:38:23.540Z,300
2018-06-04T09:39:23.274Z,305
2018-06-04T09:40:23.039Z,310
2018-06-04T09:41:23.034Z,305
2018-06-04T09:42:22.785Z,310
2018-06-04T09:43:22.793Z,305
2018-06-04T09:44:23.374Z,310
2018-06-04T09:45:23.084Z,310
2018-06-04T09:46:23.633Z,310
2018-06-04T09:47:22.879Z,315
2018-06-04T09:48:22.575Z,315
2018-06-04T09:49:22.842Z,315
2018-06-04T09:50:23.635Z,325
2018-06-04T09:51:23.467Z,320
2018-06-04T09:52:23.376Z,320
2018-06-04T09:53:22.873Z,320
2018-06-04T09:54:23.383Z,325
2018-06-04T09:55:22.857Z,330
2018-06-04T09:56:23.426Z,325
2018-06-04T09:57:23.654Z,325
2018-06-04T09:58:23.384Z,325
2018-06-04T09:59:23.438Z,335
2018-06-04T10:00:22.894Z,340
2018-06-04T10:01:23.680Z,245
2018-06-04T10:02:23.408Z,360
2018-06-04T10:03:23.439Z,370
2018-06-04T10:04:24.475Z,375
2018-06-04T10:05:23.693Z,385
2018-06-04T10:06:23.463Z,265
2018-06-04T10:07:23.217Z,365
2018-06-04T10:08:23.222Z,380
2018-06-04T10:09:23.217Z,370
2018-06-04T10:10:23.494Z,360
2018-06-04T10:11:23.593Z,355
2018-06-04T10:12:23.232Z,365
2018-06-04T10:13:22.971Z,365
2018-06-04T10:14:23.810Z,360
2018-06-04T10:15:23.246Z,360
2018-06-04T10:16:23.296Z,370
2018-06-04T10:17:23.252Z,365
2018-06-04T10:18:23.283Z,365
2018-06-04T10:19:23.035Z,360
2018-06-04T10:20:23.553Z,365
2018-06-04T10:21:23.363Z,365
2018-06-04T10:22:23.819Z,295
2018-06-04T10:53:51.824Z,315
2018-06-04T10:54:51.266Z,290
2018-06-04T10:55:51.548Z,235
2018-06-04T10:56:51.789Z,310
2018-06-04T10:57:51.526Z,310
2018-06-04T10:58:51.296Z,310
2018-06-04T10:59:51.008Z,315
2018-06-04T11:00:51.824Z,315
2018-06-04T11:01:51.561Z,325
2018-06-04T11:02:50.790Z,320
2018-06-04T11:03:51.863Z,315
2018-06-04T11:04:51.383Z,290
2018-06-04T11:05:51.835Z,255
2018-06-04T11:06:51.595Z,255
2018-06-04T11:07:51.603Z,330
2018-06-04T11:08:51.598Z,340
2018-06-04T11:09:51.330Z,345
2018-06-04T11:10:51.622Z,355
2018-06-04T11:11:51.354Z,355
2018-06-04T11:12:51.898Z,355
2018-06-04T11:13:51.095Z,355
2018-06-04T11:14:51.690Z,355
2018-06-04T11:15:51.362Z,350
2018-06-04T11:16:51.116Z,350
2018-06-04T11:17:51.907Z,345
2018-06-04T11:18:51.777Z,345
2018-06-04T11:19:51.394Z,340
2018-06-04T11:20:51.664Z,330
2018-06-04T11:21:51.696Z,325
2018-06-04T11:22:51.932Z,320
2018-06-04T11:23:53.606Z,310
2018-06-04T11:24:51.174Z,300
2018-06-04T11:25:52.422Z,295
2018-06-04T11:26:51.447Z,290
2018-06-04T11:27:51.453Z,290
2018-06-04T11:28:51.452Z,290
2018-06-04T11:29:51.454Z,290
2018-06-04T11:30:51.193Z,295
2018-06-04T11:31:51.495Z,290
2018-06-04T11:32:51.737Z,285
2018-06-04T11:33:51.484Z,285
2018-06-04T11:34:52.008Z,225
2018-06-04T11:35:52.033Z,280
2018-06-04T11:36:52.062Z,290
2018-06-04T11:37:52.059Z,290
2018-06-04T11:38:51.822Z,295
2018-06-04T11:39:51.265Z,290
2018-06-04T11:40:51.792Z,290
2018-06-04T11:41:52.090Z,290
2018-06-04T11:42:51.825Z,290
2018-06-04T11:43:52.247Z,285
2018-06-04T11:44:51.824Z,285
2018-06-04T11:45:51.589Z,280
2018-06-04T11:46:51.836Z,285
2018-06-04T11:47:51.585Z,280
2018-06-04T11:48:51.627Z,285
2018-06-04T11:49:51.866Z,285
2018-06-04T11:50:51.586Z,285
2018-06-04T11:51:51.879Z,285
2018-06-04T11:52:51.611Z,275
2018-06-04T11:53:51.862Z,265
2018-06-04T11:54:51.887Z,275
2018-06-04T11:55:51.655Z,275
2018-06-04T11:56:52.091Z,280
2018-06-04T11:57:51.900Z,285
2018-06-04T11:58:52.087Z,275
2018-06-04T11:59:51.918Z,225
2018-06-04T12:00:51.970Z,265
2018-06-04T12:01:51.752Z,195
2018-06-04T12:02:52.211Z,190
2018-06-04T12:03:51.965Z,230
2018-06-04T12:04:51.958Z,185
2018-06-04T12:05:51.543Z,180
2018-06-04T12:06:51.712Z,185
2018-06-04T12:07:52.018Z,190
2018-06-04T12:08:51.729Z,190
2018-06-04T12:09:51.209Z,195
2018-06-04T12:10:51.980Z,200
2018-06-04T12:11:52.042Z,230
2018-06-04T12:12:52.017Z,245
2018-06-04T12:13:51.763Z,205
2018-06-04T12:14:52.022Z,255
2018-06-04T12:15:52.013Z,265
2018-06-04T12:16:51.773Z,235
2018-06-04T12:17:52.007Z,245
2018-06-04T12:18:52.030Z,255
2018-06-04T12:19:51.775Z,215
2018-06-04T12:20:52.057Z,220
2018-06-04T12:21:51.271Z,225
2018-06-04T12:22:51.791Z,250
2018-06-04T12:23:55.897Z,265
2018-06-04T12:24:52.072Z,270
2018-06-04T12:25:51.555Z,270
2018-06-04T12:26:51.835Z,270
2018-06-04T12:27:52.074Z,270
2018-06-04T12:28:51.855Z,270
2018-06-04T12:29:51.603Z,275
2018-06-04T12:30:52.120Z,275
2018-06-04T12:31:51.866Z,275
2018-06-04T12:32:52.379Z,285
2018-06-04T12:33:51.605Z,285
2018-06-04T12:34:52.150Z,290
2018-06-04T12:35:51.895Z,295
2018-06-04T12:36:52.210Z,300
2018-06-04T12:37:51.900Z,245
2018-06-04T12:38:52.154Z,250
2018-06-04T12:39:52.182Z,280
2018-06-04T12:40:52.441Z,250
2018-06-04T12:41:52.432Z,245
2018-06-04T12:42:51.416Z,245
2018-06-04T12:43:52.456Z,245
2018-06-04T12:44:51.956Z,235
2018-06-04T12:45:52.194Z,225
2018-06-04T12:46:52.260Z,220
2018-06-04T12:47:51.429Z,220
2018-06-04T12:48:52.255Z,240
2018-06-04T12:49:51.704Z,235
2018-06-04T12:50:52.036Z,245
2018-06-04T12:51:52.493Z,270
2018-06-04T12:52:51.976Z,280
2018-06-04T12:53:52.515Z,265
2018-06-04T12:54:52.402Z,280
2018-06-04T12:55:52.002Z,275
2018-06-04T12:56:51.743Z,275
2018-06-04T12:57:52.265Z,275
2018-06-04T12:58:52.273Z,275
2018-06-04T12:59:52.028Z,275
2018-06-04T13:00:52.036Z,275
2018-06-04T13:01:52.550Z,275
2018-06-04T13:02:51.778Z,275
2018-06-04T13:03:52.049Z,275
2018-06-04T13:04:52.444Z,275
2018-06-04T13:05:52.609Z,275
2018-06-04T13:06:52.061Z,285
2018-06-04T13:07:51.817Z,285
2018-06-04T13:08:52.330Z,295
2018-06-04T13:09:52.601Z,290
2018-06-04T13:10:52.097Z,300
2018-06-04T13:11:52.092Z,305
2018-06-04T13:12:52.364Z,305
2018-06-04T13:13:52.385Z,305
2018-06-04T13:14:51.655Z,305
2018-06-04T13:15:52.380Z,305
2018-06-04T13:16:52.413Z,305
2018-06-04T13:17:52.139Z,305
2018-06-04T13:18:51.886Z,310
2018-06-04T13:19:51.911Z,310
2018-06-04T13:20:52.415Z,305
2018-06-04T13:21:52.163Z,300
2018-06-04T13:22:52.447Z,295
2018-06-04T13:23:52.452Z,285
2018-06-04T13:24:56.741Z,260
2018-06-04T13:25:51.934Z,230
2018-06-04T13:26:52.478Z,210
2018-06-04T13:27:52.612Z,210
2018-06-04T13:28:52.230Z,210
2018-06-04T13:29:52.747Z,205
2018-06-04T13:30:52.483Z,205
2018-06-04T13:31:52.796Z,205
2018-06-04T13:32:52.514Z,210
2018-06-04T13:33:52.523Z,215
2018-06-04T13:34:52.257Z,210
2018-06-04T13:35:51.994Z,210
2018-06-04T13:36:52.265Z,250
2018-06-04T13:37:52.258Z,225
2018-06-04T13:38:52.300Z,205
2018-06-04T13:39:52.535Z,215
2018-06-04T13:40:52.299Z,220
2018-06-04T13:41:51.774Z,240
2018-06-04T13:42:52.555Z,260
2018-06-04T13:43:52.555Z,260
2018-06-04T13:44:52.573Z,260
2018-06-04T13:45:52.081Z,260
2018-06-04T13:46:52.583Z,250
2018-06-04T13:47:52.841Z,250
2018-06-04T13:48:52.334Z,255
2018-06-04T13:49:52.894Z,250
2018-06-04T13:50:52.355Z,250
2018-06-04T13:51:52.615Z,250
2018-06-04T13:52:52.872Z,250
2018-06-04T13:53:52.621Z,250
2018-06-04T13:54:52.886Z,250
2018-06-04T13:55:52.885Z,255
2018-06-04T13:56:52.640Z,250
2018-06-04T13:57:52.127Z,250
2018-06-04T13:58:52.395Z,250
2018-06-04T13:59:52.762Z,250
2018-06-04T14:00:52.140Z,250
2018-06-04T14:01:52.447Z,255
2018-06-04T14:02:52.900Z,255
2018-06-04T14:03:52.483Z,255
2018-06-04T14:04:52.735Z,255
2018-06-04T14:05:52.704Z,260
2018-06-04T14:06:52.728Z,260
2018-06-04T14:07:52.697Z,250
2018-06-04T14:08:52.798Z,225
2018-06-04T14:09:52.975Z,215
2018-06-04T14:10:52.488Z,245
2018-06-04T14:11:52.741Z,235
2018-06-04T14:12:52.495Z,230
2018-06-04T14:13:52.510Z,230
2018-06-04T14:14:52.768Z,225
2018-06-04T14:15:52.767Z,210
2018-06-04T14:16:52.253Z,185
2018-06-04T14:17:53.008Z,185
2018-06-04T14:18:52.509Z,185
2018-06-04T14:19:52.512Z,185
2018-06-04T14:20:53.029Z,185
2018-06-04T14:21:52.548Z,190
2018-06-04T14:22:52.808Z,190
2018-06-04T14:23:52.289Z,195
2018-06-04T14:24:53.656Z,200
2018-06-04T14:25:52.817Z,205
2018-06-04T14:26:52.554Z,215
2018-06-04T14:27:52.578Z,225
2018-06-04T14:28:52.820Z,255
2018-06-04T14:29:53.089Z,255
2018-06-04T14:30:52.837Z,260
2018-06-04T14:31:53.098Z,260
2018-06-04T14:32:52.866Z,260
2018-06-04T14:33:53.014Z,265
2018-06-04T14:34:52.597Z,270
2018-06-04T14:35:52.867Z,270
2018-06-04T14:36:53.133Z,270
2018-06-04T14:37:52.756Z,275
2018-06-04T14:38:52.632Z,265
2018-06-04T14:39:53.118Z,255
2018-06-04T14:40:53.177Z,245